sensor_id;sensor_type;location;lat;lon;timestamp;temperature;humidity
51811;DHT22;52468;40.116;18.296;2024-01-27T00:02:14;7.70;82.30
51811;DHT22;52468;40.116;18.296;2024-01-27T00:04:42;7.80;82.20
51811;DHT22;52468;40.116;18.296;2024-01-27T00:07:10;7.80;82.10
51811;DHT22;52468;40.116;18.296;2024-01-27T00:09:38;7.80;82.00
51811;DHT22;52468;40.116;18.296;2024-01-27T00:12:07;7.90;81.90
51811;DHT22;52468;40.116;18.296;2024-01-27T00:14:38;7.90;81.80
51811;DHT22;52468;40.116;18.296;2024-01-27T00:17:06;7.90;81.70
51811;DHT22;52468;40.116;18.296;2024-01-27T00:19:34;7.90;81.70
51811;DHT22;52468;40.116;18.296;2024-01-27T00:22:03;7.90;81.70
51811;DHT22;52468;40.116;18.296;2024-01-27T00:24:31;8.00;81.60
51811;DHT22;52468;40.116;18.296;2024-01-27T00:27:00;7.90;81.80
51811;DHT22;52468;40.116;18.296;2024-01-27T00:29:28;7.90;82.00
51811;DHT22;52468;40.116;18.296;2024-01-27T00:31:56;7.90;82.10
51811;DHT22;52468;40.116;18.296;2024-01-27T00:34:24;8.00;82.00
51811;DHT22;52468;40.116;18.296;2024-01-27T00:36:52;7.90;81.90
51811;DHT22;52468;40.116;18.296;2024-01-27T00:39:20;8.00;82.10
51811;DHT22;52468;40.116;18.296;2024-01-27T00:41:48;7.90;82.50
51811;DHT22;52468;40.116;18.296;2024-01-27T00:44:16;7.90;82.90
51811;DHT22;52468;40.116;18.296;2024-01-27T00:46:44;7.90;82.70
51811;DHT22;52468;40.116;18.296;2024-01-27T00:49:12;8.00;82.50
51811;DHT22;52468;40.116;18.296;2024-01-27T00:51:40;8.00;82.40
51811;DHT22;52468;40.116;18.296;2024-01-27T00:54:08;8.00;82.30
51811;DHT22;52468;40.116;18.296;2024-01-27T00:56:35;8.00;82.40
51811;DHT22;52468;40.116;18.296;2024-01-27T00:59:03;8.00;82.40
51811;DHT22;52468;40.116;18.296;2024-01-27T01:01:31;7.90;82.40
51811;DHT22;52468;40.116;18.296;2024-01-27T01:03:59;7.90;82.70
51811;DHT22;52468;40.116;18.296;2024-01-27T01:06:27;7.90;82.90
51811;DHT22;52468;40.116;18.296;2024-01-27T01:08:54;7.80;82.80
51811;DHT22;52468;40.116;18.296;2024-01-27T01:11:22;7.80;82.70
51811;DHT22;52468;40.116;18.296;2024-01-27T01:13:50;7.70;83.00
51811;DHT22;52468;40.116;18.296;2024-01-27T01:16:18;7.70;83.00
51811;DHT22;52468;40.116;18.296;2024-01-27T01:18:46;7.70;82.70
51811;DHT22;52468;40.116;18.296;2024-01-27T01:21:14;7.70;82.80
51811;DHT22;52468;40.116;18.296;2024-01-27T01:23:42;7.60;82.70
51811;DHT22;52468;40.116;18.296;2024-01-27T01:26:10;7.60;82.60
51811;DHT22;52468;40.116;18.296;2024-01-27T01:28:38;7.50;82.80
51811;DHT22;52468;40.116;18.296;2024-01-27T01:31:06;7.50;82.70
51811;DHT22;52468;40.116;18.296;2024-01-27T01:33:35;7.50;82.80
51811;DHT22;52468;40.116;18.296;2024-01-27T01:36:03;7.40;82.70
51811;DHT22;52468;40.116;18.296;2024-01-27T01:38:31;7.40;82.70
51811;DHT22;52468;40.116;18.296;2024-01-27T01:40:59;7.30;82.40
51811;DHT22;52468;40.116;18.296;2024-01-27T01:43:27;7.30;82.30
51811;DHT22;52468;40.116;18.296;2024-01-27T01:45:55;7.30;82.50
51811;DHT22;52468;40.116;18.296;2024-01-27T01:48:23;7.30;82.90
51811;DHT22;52468;40.116;18.296;2024-01-27T01:50:52;7.30;83.10
51811;DHT22;52468;40.116;18.296;2024-01-27T01:53:22;7.30;83.00
51811;DHT22;52468;40.116;18.296;2024-01-27T01:55:50;7.40;83.00
51811;DHT22;52468;40.116;18.296;2024-01-27T01:58:19;7.40;83.10
51811;DHT22;52468;40.116;18.296;2024-01-27T02:00:47;7.50;83.20
51811;DHT22;52468;40.116;18.296;2024-01-27T02:03:15;7.50;83.10
51811;DHT22;52468;40.116;18.296;2024-01-27T02:05:42;7.50;83.00
51811;DHT22;52468;40.116;18.296;2024-01-27T02:08:10;7.50;83.20
51811;DHT22;52468;40.116;18.296;2024-01-27T02:10:38;7.50;82.90
51811;DHT22;52468;40.116;18.296;2024-01-27T02:13:19;7.50;82.90
51811;DHT22;52468;40.116;18.296;2024-01-27T02:15:49;7.50;83.00
51811;DHT22;52468;40.116;18.296;2024-01-27T02:18:17;7.50;83.00
51811;DHT22;52468;40.116;18.296;2024-01-27T02:20:46;7.50;83.00
51811;DHT22;52468;40.116;18.296;2024-01-27T02:23:14;7.50;83.20
51811;DHT22;52468;40.116;18.296;2024-01-27T02:25:41;7.50;83.20
51811;DHT22;52468;40.116;18.296;2024-01-27T02:28:09;7.60;83.20
51811;DHT22;52468;40.116;18.296;2024-01-27T02:30:37;7.60;83.10
51811;DHT22;52468;40.116;18.296;2024-01-27T02:33:05;7.80;82.90
51811;DHT22;52468;40.116;18.296;2024-01-27T02:35:33;7.90;82.50
51811;DHT22;52468;40.116;18.296;2024-01-27T02:38:01;8.00;82.20
51811;DHT22;52468;40.116;18.296;2024-01-27T02:40:29;8.10;82.00
51811;DHT22;52468;40.116;18.296;2024-01-27T02:42:57;8.10;81.70
51811;DHT22;52468;40.116;18.296;2024-01-27T02:45:25;8.10;81.60
51811;DHT22;52468;40.116;18.296;2024-01-27T02:47:53;8.10;81.20
51811;DHT22;52468;40.116;18.296;2024-01-27T02:50:21;8.20;80.90
51811;DHT22;52468;40.116;18.296;2024-01-27T02:52:49;8.30;80.70
51811;DHT22;52468;40.116;18.296;2024-01-27T02:55:17;8.30;80.70
51811;DHT22;52468;40.116;18.296;2024-01-27T02:57:45;8.30;80.70
51811;DHT22;52468;40.116;18.296;2024-01-27T03:00:13;8.30;80.50
51811;DHT22;52468;40.116;18.296;2024-01-27T03:02:41;8.30;80.40
51811;DHT22;52468;40.116;18.296;2024-01-27T03:05:08;8.30;80.40
51811;DHT22;52468;40.116;18.296;2024-01-27T03:07:36;8.30;80.20
51811;DHT22;52468;40.116;18.296;2024-01-27T03:10:05;8.30;80.10
51811;DHT22;52468;40.116;18.296;2024-01-27T03:12:33;8.30;80.00
51811;DHT22;52468;40.116;18.296;2024-01-27T03:15:00;8.30;80.00
51811;DHT22;52468;40.116;18.296;2024-01-27T03:17:28;8.30;79.90
51811;DHT22;52468;40.116;18.296;2024-01-27T03:19:56;8.30;79.60
51811;DHT22;52468;40.116;18.296;2024-01-27T03:22:24;8.30;79.60
51811;DHT22;52468;40.116;18.296;2024-01-27T03:24:52;8.30;79.50
51811;DHT22;52468;40.116;18.296;2024-01-27T03:27:22;8.30;79.30
51811;DHT22;52468;40.116;18.296;2024-01-27T03:29:50;8.30;79.40
51811;DHT22;52468;40.116;18.296;2024-01-27T03:32:18;8.40;79.50
51811;DHT22;52468;40.116;18.296;2024-01-27T03:34:46;8.50;79.70
51811;DHT22;52468;40.116;18.296;2024-01-27T03:37:14;8.60;79.30
51811;DHT22;52468;40.116;18.296;2024-01-27T03:39:42;8.70;79.00
51811;DHT22;52468;40.116;18.296;2024-01-27T03:42:10;8.70;79.10
51811;DHT22;52468;40.116;18.296;2024-01-27T03:44:38;8.70;79.00
51811;DHT22;52468;40.116;18.296;2024-01-27T03:47:06;8.70;79.10
51811;DHT22;52468;40.116;18.296;2024-01-27T03:49:34;8.70;79.10
51811;DHT22;52468;40.116;18.296;2024-01-27T03:52:02;8.60;79.20
51811;DHT22;52468;40.116;18.296;2024-01-27T03:54:30;8.50;79.50
51811;DHT22;52468;40.116;18.296;2024-01-27T03:56:58;8.60;80.00
51811;DHT22;52468;40.116;18.296;2024-01-27T03:59:25;8.60;80.10
51811;DHT22;52468;40.116;18.296;2024-01-27T04:01:53;8.70;80.00
51811;DHT22;52468;40.116;18.296;2024-01-27T04:04:21;8.70;80.20
51811;DHT22;52468;40.116;18.296;2024-01-27T04:06:49;8.80;80.20
51811;DHT22;52468;40.116;18.296;2024-01-27T04:09:17;8.90;80.40
51811;DHT22;52468;40.116;18.296;2024-01-27T04:11:46;9.00;80.00
51811;DHT22;52468;40.116;18.296;2024-01-27T04:14:14;9.00;79.60
51811;DHT22;52468;40.116;18.296;2024-01-27T04:16:41;9.00;79.50
51811;DHT22;52468;40.116;18.296;2024-01-27T04:19:09;9.00;79.60
51811;DHT22;52468;40.116;18.296;2024-01-27T04:21:37;9.00;79.50
51811;DHT22;52468;40.116;18.296;2024-01-27T04:24:05;8.90;79.90
51811;DHT22;52468;40.116;18.296;2024-01-27T04:26:33;9.00;80.10
51811;DHT22;52468;40.116;18.296;2024-01-27T04:29:01;9.00;80.10
51811;DHT22;52468;40.116;18.296;2024-01-27T04:31:29;9.00;80.30
51811;DHT22;52468;40.116;18.296;2024-01-27T04:33:58;9.10;80.60
51811;DHT22;52468;40.116;18.296;2024-01-27T04:36:29;9.10;80.50
51811;DHT22;52468;40.116;18.296;2024-01-27T04:38:57;9.10;80.80
51811;DHT22;52468;40.116;18.296;2024-01-27T04:41:25;9.10;80.80
51811;DHT22;52468;40.116;18.296;2024-01-27T04:43:53;9.20;81.00
51811;DHT22;52468;40.116;18.296;2024-01-27T04:46:23;9.20;81.10
51811;DHT22;52468;40.116;18.296;2024-01-27T04:48:51;9.20;81.20
51811;DHT22;52468;40.116;18.296;2024-01-27T04:51:19;9.30;81.40
51811;DHT22;52468;40.116;18.296;2024-01-27T04:53:47;9.40;81.40
51811;DHT22;52468;40.116;18.296;2024-01-27T04:56:15;9.50;81.50
51811;DHT22;52468;40.116;18.296;2024-01-27T04:58:42;9.50;81.60
51811;DHT22;52468;40.116;18.296;2024-01-27T05:01:10;9.60;81.30
51811;DHT22;52468;40.116;18.296;2024-01-27T05:03:38;9.60;81.50
51811;DHT22;52468;40.116;18.296;2024-01-27T05:06:09;9.60;81.50
51811;DHT22;52468;40.116;18.296;2024-01-27T05:08:37;9.60;81.60
51811;DHT22;52468;40.116;18.296;2024-01-27T05:11:06;9.60;81.80
51811;DHT22;52468;40.116;18.296;2024-01-27T05:13:34;9.60;81.90
51811;DHT22;52468;40.116;18.296;2024-01-27T05:16:02;9.60;82.30
51811;DHT22;52468;40.116;18.296;2024-01-27T05:18:29;9.70;82.40
51811;DHT22;52468;40.116;18.296;2024-01-27T05:20:57;9.80;82.70
51811;DHT22;52468;40.116;18.296;2024-01-27T05:23:25;9.80;83.10
51811;DHT22;52468;40.116;18.296;2024-01-27T05:25:53;9.80;83.40
51811;DHT22;52468;40.116;18.296;2024-01-27T05:28:22;9.80;83.60
51811;DHT22;52468;40.116;18.296;2024-01-27T05:30:50;9.80;83.70
51811;DHT22;52468;40.116;18.296;2024-01-27T05:33:18;9.90;83.80
51811;DHT22;52468;40.116;18.296;2024-01-27T05:35:45;9.90;83.80
51811;DHT22;52468;40.116;18.296;2024-01-27T05:38:13;10.00;83.80
51811;DHT22;52468;40.116;18.296;2024-01-27T05:40:41;10.00;83.80
51811;DHT22;52468;40.116;18.296;2024-01-27T05:43:09;10.00;83.80
51811;DHT22;52468;40.116;18.296;2024-01-27T05:45:37;10.00;83.90
51811;DHT22;52468;40.116;18.296;2024-01-27T05:48:06;10.00;84.00
51811;DHT22;52468;40.116;18.296;2024-01-27T05:50:33;10.00;84.10
51811;DHT22;52468;40.116;18.296;2024-01-27T05:53:03;10.00;84.20
51811;DHT22;52468;40.116;18.296;2024-01-27T05:55:31;10.10;84.20
51811;DHT22;52468;40.116;18.296;2024-01-27T05:58:01;10.00;84.30
51811;DHT22;52468;40.116;18.296;2024-01-27T06:00:29;10.10;84.20
51811;DHT22;52468;40.116;18.296;2024-01-27T06:02:57;10.10;84.40
51811;DHT22;52468;40.116;18.296;2024-01-27T06:05:25;10.10;84.40
51811;DHT22;52468;40.116;18.296;2024-01-27T06:07:52;10.10;84.30
51811;DHT22;52468;40.116;18.296;2024-01-27T06:10:20;10.20;84.30
51811;DHT22;52468;40.116;18.296;2024-01-27T06:12:49;10.20;84.60
51811;DHT22;52468;40.116;18.296;2024-01-27T06:15:17;10.20;84.70
51811;DHT22;52468;40.116;18.296;2024-01-27T06:17:44;10.30;84.90
51811;DHT22;52468;40.116;18.296;2024-01-27T06:20:12;10.30;84.90
51811;DHT22;52468;40.116;18.296;2024-01-27T06:22:41;10.40;85.10
51811;DHT22;52468;40.116;18.296;2024-01-27T06:25:08;10.50;85.00
51811;DHT22;52468;40.116;18.296;2024-01-27T06:27:38;10.60;84.70
51811;DHT22;52468;40.116;18.296;2024-01-27T06:30:06;10.60;84.70
51811;DHT22;52468;40.116;18.296;2024-01-27T06:32:34;10.70;84.50
51811;DHT22;52468;40.116;18.296;2024-01-27T06:35:03;10.70;84.70
51811;DHT22;52468;40.116;18.296;2024-01-27T06:37:31;10.80;84.30
51811;DHT22;52468;40.116;18.296;2024-01-27T06:39:59;10.80;84.40
51811;DHT22;52468;40.116;18.296;2024-01-27T06:42:27;11.00;84.50
51811;DHT22;52468;40.116;18.296;2024-01-27T06:44:55;11.10;84.40
51811;DHT22;52468;40.116;18.296;2024-01-27T06:47:23;11.30;84.00
51811;DHT22;52468;40.116;18.296;2024-01-27T06:49:51;11.50;84.00
51811;DHT22;52468;40.116;18.296;2024-01-27T06:52:19;11.60;83.50
51811;DHT22;52468;40.116;18.296;2024-01-27T06:54:46;11.70;83.40
51811;DHT22;52468;40.116;18.296;2024-01-27T06:57:18;11.80;83.70
51811;DHT22;52468;40.116;18.296;2024-01-27T06:59:48;12.00;83.60
51811;DHT22;52468;40.116;18.296;2024-01-27T07:02:26;12.20;83.70
51811;DHT22;52468;40.116;18.296;2024-01-27T07:04:54;12.40;83.50
51811;DHT22;52468;40.116;18.296;2024-01-27T07:07:27;12.50;83.00
51811;DHT22;52468;40.116;18.296;2024-01-27T07:09:55;12.50;82.00
51811;DHT22;52468;40.116;18.296;2024-01-27T07:12:24;12.30;81.90
51811;DHT22;52468;40.116;18.296;2024-01-27T07:14:52;12.10;81.40
51811;DHT22;52468;40.116;18.296;2024-01-27T07:17:23;11.90;82.00
51811;DHT22;52468;40.116;18.296;2024-01-27T07:19:51;11.60;81.70
51811;DHT22;52468;40.116;18.296;2024-01-27T07:22:21;11.50;82.40
51811;DHT22;52468;40.116;18.296;2024-01-27T07:24:51;11.50;82.70
51811;DHT22;52468;40.116;18.296;2024-01-27T07:27:19;11.40;83.00
51811;DHT22;52468;40.116;18.296;2024-01-27T07:29:47;11.50;83.50
51811;DHT22;52468;40.116;18.296;2024-01-27T07:32:16;11.60;83.50
51811;DHT22;52468;40.116;18.296;2024-01-27T07:34:44;11.60;83.90
51811;DHT22;52468;40.116;18.296;2024-01-27T07:37:12;11.80;84.10
51811;DHT22;52468;40.116;18.296;2024-01-27T07:39:40;12.10;84.10
51811;DHT22;52468;40.116;18.296;2024-01-27T07:42:08;12.40;84.40
51811;DHT22;52468;40.116;18.296;2024-01-27T07:44:37;12.50;84.20
51811;DHT22;52468;40.116;18.296;2024-01-27T07:47:05;12.70;83.80
51811;DHT22;52468;40.116;18.296;2024-01-27T07:49:33;12.60;83.30
51811;DHT22;52468;40.116;18.296;2024-01-27T07:52:01;12.80;83.60
51811;DHT22;52468;40.116;18.296;2024-01-27T07:54:29;13.00;83.60
51811;DHT22;52468;40.116;18.296;2024-01-27T07:56:57;13.10;83.40
51811;DHT22;52468;40.116;18.296;2024-01-27T07:59:24;13.30;83.50
51811;DHT22;52468;40.116;18.296;2024-01-27T08:01:52;13.50;83.40
51811;DHT22;52468;40.116;18.296;2024-01-27T08:04:20;13.50;82.20
51811;DHT22;52468;40.116;18.296;2024-01-27T08:06:49;13.50;82.80
51811;DHT22;52468;40.116;18.296;2024-01-27T08:09:18;13.60;82.60
51811;DHT22;52468;40.116;18.296;2024-01-27T08:11:46;13.60;82.60
51811;DHT22;52468;40.116;18.296;2024-01-27T08:14:19;13.60;82.10
51811;DHT22;52468;40.116;18.296;2024-01-27T08:16:47;13.60;82.40
51811;DHT22;52468;40.116;18.296;2024-01-27T08:19:16;13.60;82.60
51811;DHT22;52468;40.116;18.296;2024-01-27T08:21:48;13.70;82.60
51811;DHT22;52468;40.116;18.296;2024-01-27T08:24:15;13.60;82.40
51811;DHT22;52468;40.116;18.296;2024-01-27T08:26:43;13.70;82.80
51811;DHT22;52468;40.116;18.296;2024-01-27T08:29:12;13.90;83.40
51811;DHT22;52468;40.116;18.296;2024-01-27T08:31:40;14.00;83.50
51811;DHT22;52468;40.116;18.296;2024-01-27T08:34:08;14.10;83.10
51811;DHT22;52468;40.116;18.296;2024-01-27T08:36:37;14.20;83.30
51811;DHT22;52468;40.116;18.296;2024-01-27T08:39:05;14.60;83.80
51811;DHT22;52468;40.116;18.296;2024-01-27T08:41:35;15.00;83.00
51811;DHT22;52468;40.116;18.296;2024-01-27T08:44:03;15.20;82.90
51811;DHT22;52468;40.116;18.296;2024-01-27T08:46:31;15.10;81.50
51811;DHT22;52468;40.116;18.296;2024-01-27T08:48:59;15.10;80.70
51811;DHT22;52468;40.116;18.296;2024-01-27T08:51:26;15.10;81.50
51811;DHT22;52468;40.116;18.296;2024-01-27T08:53:54;15.00;80.10
51811;DHT22;52468;40.116;18.296;2024-01-27T08:56:22;15.00;80.30
51811;DHT22;52468;40.116;18.296;2024-01-27T08:58:50;15.10;80.40
51811;DHT22;52468;40.116;18.296;2024-01-27T09:01:19;15.30;79.20
51811;DHT22;52468;40.116;18.296;2024-01-27T09:03:47;15.30;78.60
51811;DHT22;52468;40.116;18.296;2024-01-27T09:06:15;15.40;79.40
51811;DHT22;52468;40.116;18.296;2024-01-27T09:08:44;15.60;80.00
51811;DHT22;52468;40.116;18.296;2024-01-27T09:11:12;15.80;79.00
51811;DHT22;52468;40.116;18.296;2024-01-27T09:13:40;15.90;78.20
51811;DHT22;52468;40.116;18.296;2024-01-27T09:16:08;16.00;76.80
51811;DHT22;52468;40.116;18.296;2024-01-27T09:18:40;16.10;76.10
51811;DHT22;52468;40.116;18.296;2024-01-27T09:21:07;16.00;75.10
51811;DHT22;52468;40.116;18.296;2024-01-27T09:23:36;15.90;74.70
51811;DHT22;52468;40.116;18.296;2024-01-27T09:26:05;16.00;75.30
51811;DHT22;52468;40.116;18.296;2024-01-27T09:28:33;16.00;75.50
51811;DHT22;52468;40.116;18.296;2024-01-27T09:31:01;16.00;75.20
51811;DHT22;52468;40.116;18.296;2024-01-27T09:33:29;16.00;75.60
51811;DHT22;52468;40.116;18.296;2024-01-27T09:35:57;16.20;75.50
51811;DHT22;52468;40.116;18.296;2024-01-27T09:38:25;16.20;74.20
51811;DHT22;52468;40.116;18.296;2024-01-27T09:40:53;15.90;74.10
51811;DHT22;52468;40.116;18.296;2024-01-27T09:43:21;15.80;74.30
51811;DHT22;52468;40.116;18.296;2024-01-27T09:45:49;15.80;74.50
51811;DHT22;52468;40.116;18.296;2024-01-27T09:48:17;16.10;74.30
51811;DHT22;52468;40.116;18.296;2024-01-27T09:50:47;16.20;73.50
51811;DHT22;52468;40.116;18.296;2024-01-27T09:53:16;16.30;73.20
51811;DHT22;52468;40.116;18.296;2024-01-27T09:55:44;16.50;73.70
51811;DHT22;52468;40.116;18.296;2024-01-27T09:58:12;16.90;72.60
51811;DHT22;52468;40.116;18.296;2024-01-27T10:00:42;17.10;71.70
51811;DHT22;52468;40.116;18.296;2024-01-27T10:03:11;17.10;71.20
51811;DHT22;52468;40.116;18.296;2024-01-27T10:05:41;17.10;71.50
51811;DHT22;52468;40.116;18.296;2024-01-27T10:08:09;17.00;71.30
51811;DHT22;52468;40.116;18.296;2024-01-27T10:10:37;17.10;70.30
51811;DHT22;52468;40.116;18.296;2024-01-27T10:13:06;17.10;68.80
51811;DHT22;52468;40.116;18.296;2024-01-27T10:15:35;17.10;69.00
51811;DHT22;52468;40.116;18.296;2024-01-27T10:18:06;17.00;68.00
51811;DHT22;52468;40.116;18.296;2024-01-27T10:20:35;16.90;67.30
51811;DHT22;52468;40.116;18.296;2024-01-27T10:23:12;16.60;68.60
51811;DHT22;52468;40.116;18.296;2024-01-27T10:25:41;16.50;68.90
51811;DHT22;52468;40.116;18.296;2024-01-27T10:28:09;16.50;68.70
51811;DHT22;52468;40.116;18.296;2024-01-27T10:30:37;16.50;68.50
51811;DHT22;52468;40.116;18.296;2024-01-27T10:33:08;16.30;69.20
51811;DHT22;52468;40.116;18.296;2024-01-27T10:35:36;16.50;68.60
51811;DHT22;52468;40.116;18.296;2024-01-27T10:38:04;16.30;68.60
51811;DHT22;52468;40.116;18.296;2024-01-27T10:40:32;16.20;69.10
51811;DHT22;52468;40.116;18.296;2024-01-27T10:43:05;16.30;69.00
51811;DHT22;52468;40.116;18.296;2024-01-27T10:45:38;16.50;69.10
51811;DHT22;52468;40.116;18.296;2024-01-27T10:48:08;16.50;68.60
51811;DHT22;52468;40.116;18.296;2024-01-27T10:50:39;16.50;68.90
51811;DHT22;52468;40.116;18.296;2024-01-27T10:53:23;16.50;68.70
51811;DHT22;52468;40.116;18.296;2024-01-27T10:55:58;16.50;68.40
51811;DHT22;52468;40.116;18.296;2024-01-27T10:58:27;16.40;68.20
51811;DHT22;52468;40.116;18.296;2024-01-27T11:00:58;16.50;68.10
51811;DHT22;52468;40.116;18.296;2024-01-27T11:03:27;16.40;68.30
51811;DHT22;52468;40.116;18.296;2024-01-27T11:05:57;16.30;69.20
51811;DHT22;52468;40.116;18.296;2024-01-27T11:08:25;16.40;69.20
51811;DHT22;52468;40.116;18.296;2024-01-27T11:10:56;16.50;68.70
51811;DHT22;52468;40.116;18.296;2024-01-27T11:13:24;16.60;68.00
51811;DHT22;52468;40.116;18.296;2024-01-27T11:15:54;16.70;66.90
51811;DHT22;52468;40.116;18.296;2024-01-27T11:18:22;16.70;66.40
51811;DHT22;52468;40.116;18.296;2024-01-27T11:20:59;16.90;66.00
51811;DHT22;52468;40.116;18.296;2024-01-27T11:23:35;17.10;65.00
51811;DHT22;52468;40.116;18.296;2024-01-27T11:26:07;17.30;64.40
51811;DHT22;52468;40.116;18.296;2024-01-27T11:28:37;17.50;64.00
51811;DHT22;52468;40.116;18.296;2024-01-27T11:31:06;17.20;63.60
51811;DHT22;52468;40.116;18.296;2024-01-27T11:33:41;17.10;64.50
51811;DHT22;52468;40.116;18.296;2024-01-27T11:36:19;17.00;65.50
51811;DHT22;52468;40.116;18.296;2024-01-27T11:38:48;17.10;65.70
51811;DHT22;52468;40.116;18.296;2024-01-27T11:41:26;17.20;64.80
51811;DHT22;52468;40.116;18.296;2024-01-27T11:43:58;17.50;64.70
51811;DHT22;52468;40.116;18.296;2024-01-27T11:46:29;17.60;63.60
51811;DHT22;52468;40.116;18.296;2024-01-27T11:48:57;17.40;64.00
51811;DHT22;52468;40.116;18.296;2024-01-27T11:51:25;17.30;64.60
51811;DHT22;52468;40.116;18.296;2024-01-27T11:53:53;17.40;64.60
51811;DHT22;52468;40.116;18.296;2024-01-27T11:56:21;17.50;64.90
51811;DHT22;52468;40.116;18.296;2024-01-27T11:58:49;17.60;64.00
51811;DHT22;52468;40.116;18.296;2024-01-27T12:01:17;17.50;63.40
51811;DHT22;52468;40.116;18.296;2024-01-27T12:03:45;17.30;63.20
51811;DHT22;52468;40.116;18.296;2024-01-27T12:06:14;16.90;65.00
51811;DHT22;52468;40.116;18.296;2024-01-27T12:08:42;17.10;65.20
51811;DHT22;52468;40.116;18.296;2024-01-27T12:11:16;17.40;64.00
51811;DHT22;52468;40.116;18.296;2024-01-27T12:13:45;17.40;63.60
51811;DHT22;52468;40.116;18.296;2024-01-27T12:16:13;17.60;63.30
51811;DHT22;52468;40.116;18.296;2024-01-27T12:18:41;17.70;62.80
51811;DHT22;52468;40.116;18.296;2024-01-27T12:21:09;17.60;62.80
51811;DHT22;52468;40.116;18.296;2024-01-27T12:23:57;17.80;63.00
51811;DHT22;52468;40.116;18.296;2024-01-27T12:26:28;17.80;62.00
51811;DHT22;52468;40.116;18.296;2024-01-27T12:28:57;17.60;62.50
51811;DHT22;52468;40.116;18.296;2024-01-27T12:31:27;17.30;62.50
51811;DHT22;52468;40.116;18.296;2024-01-27T12:33:56;17.10;62.80
51811;DHT22;52468;40.116;18.296;2024-01-27T12:36:27;17.00;63.40
51811;DHT22;52468;40.116;18.296;2024-01-27T12:38:59;16.80;64.10
51811;DHT22;52468;40.116;18.296;2024-01-27T12:41:28;16.50;64.60
51811;DHT22;52468;40.116;18.296;2024-01-27T12:43:56;16.40;65.00
51811;DHT22;52468;40.116;18.296;2024-01-27T12:46:25;16.50;65.20
51811;DHT22;52468;40.116;18.296;2024-01-27T12:48:53;16.50;65.20
51811;DHT22;52468;40.116;18.296;2024-01-27T12:51:21;16.50;64.90
51811;DHT22;52468;40.116;18.296;2024-01-27T12:53:49;16.40;65.00
51811;DHT22;52468;40.116;18.296;2024-01-27T12:56:17;16.50;65.30
51811;DHT22;52468;40.116;18.296;2024-01-27T13:03:41;16.60;64.60
51811;DHT22;52468;40.116;18.296;2024-01-27T13:06:10;16.70;64.50
51811;DHT22;52468;40.116;18.296;2024-01-27T13:08:38;16.90;64.40
51811;DHT22;52468;40.116;18.296;2024-01-27T13:11:06;17.10;63.60
51811;DHT22;52468;40.116;18.296;2024-01-27T13:13:34;17.30;62.90
51811;DHT22;52468;40.116;18.296;2024-01-27T13:16:02;17.30;62.20
51811;DHT22;52468;40.116;18.296;2024-01-27T13:18:30;17.30;62.40
51811;DHT22;52468;40.116;18.296;2024-01-27T13:20:58;17.30;63.10
51811;DHT22;52468;40.116;18.296;2024-01-27T13:23:26;17.40;63.50
51811;DHT22;52468;40.116;18.296;2024-01-27T13:25:54;17.70;62.40
51811;DHT22;52468;40.116;18.296;2024-01-27T13:28:24;17.80;62.30
51811;DHT22;52468;40.116;18.296;2024-01-27T13:30:52;18.00;62.00
51811;DHT22;52468;40.116;18.296;2024-01-27T13:33:19;18.10;61.60
51811;DHT22;52468;40.116;18.296;2024-01-27T13:35:47;18.10;60.90
51811;DHT22;52468;40.116;18.296;2024-01-27T13:38:16;18.00;60.60
51811;DHT22;52468;40.116;18.296;2024-01-27T13:40:47;17.60;61.70
51811;DHT22;52468;40.116;18.296;2024-01-27T13:43:15;17.20;63.20
51811;DHT22;52468;40.116;18.296;2024-01-27T13:45:44;17.10;63.50
51811;DHT22;52468;40.116;18.296;2024-01-27T13:48:12;17.10;63.90
51811;DHT22;52468;40.116;18.296;2024-01-27T13:50:40;16.90;64.10
51811;DHT22;52468;40.116;18.296;2024-01-27T13:53:08;16.70;64.50
51811;DHT22;52468;40.116;18.296;2024-01-27T13:55:36;16.50;65.20
51811;DHT22;52468;40.116;18.296;2024-01-27T13:58:05;16.50;65.50
51811;DHT22;52468;40.116;18.296;2024-01-27T14:00:33;16.40;65.30
51811;DHT22;52468;40.116;18.296;2024-01-27T14:03:02;16.40;65.60
51811;DHT22;52468;40.116;18.296;2024-01-27T14:05:30;16.50;65.50
51811;DHT22;52468;40.116;18.296;2024-01-27T14:07:58;16.70;64.70
51811;DHT22;52468;40.116;18.296;2024-01-27T14:10:26;17.00;64.90
51811;DHT22;52468;40.116;18.296;2024-01-27T14:12:55;17.00;63.40
51811;DHT22;52468;40.116;18.296;2024-01-27T14:15:23;16.90;63.80
51811;DHT22;52468;40.116;18.296;2024-01-27T14:17:51;17.00;63.90
51811;DHT22;52468;40.116;18.296;2024-01-27T14:20:18;17.00;64.00
51811;DHT22;52468;40.116;18.296;2024-01-27T14:22:46;17.10;63.80
51811;DHT22;52468;40.116;18.296;2024-01-27T14:25:14;17.10;63.40
51811;DHT22;52468;40.116;18.296;2024-01-27T14:27:42;16.80;63.60
51811;DHT22;52468;40.116;18.296;2024-01-27T14:30:10;16.40;65.10
51811;DHT22;52468;40.116;18.296;2024-01-27T14:32:38;16.10;66.60
51811;DHT22;52468;40.116;18.296;2024-01-27T14:35:07;16.10;67.10
51811;DHT22;52468;40.116;18.296;2024-01-27T14:37:35;16.10;67.40
51811;DHT22;52468;40.116;18.296;2024-01-27T14:40:03;16.00;67.10
51811;DHT22;52468;40.116;18.296;2024-01-27T14:42:32;15.80;67.30
51811;DHT22;52468;40.116;18.296;2024-01-27T14:45:00;15.70;67.80
51811;DHT22;52468;40.116;18.296;2024-01-27T14:47:28;15.60;68.20
51811;DHT22;52468;40.116;18.296;2024-01-27T14:49:56;15.50;68.60
51811;DHT22;52468;40.116;18.296;2024-01-27T14:52:24;15.50;68.70
51811;DHT22;52468;40.116;18.296;2024-01-27T14:54:52;15.50;68.80
51811;DHT22;52468;40.116;18.296;2024-01-27T14:57:20;15.50;68.90
51811;DHT22;52468;40.116;18.296;2024-01-27T14:59:47;15.30;69.10
51811;DHT22;52468;40.116;18.296;2024-01-27T15:02:15;15.30;69.10
51811;DHT22;52468;40.116;18.296;2024-01-27T15:04:44;15.30;68.90
51811;DHT22;52468;40.116;18.296;2024-01-27T15:07:12;15.20;69.20
51811;DHT22;52468;40.116;18.296;2024-01-27T15:09:43;15.20;69.30
51811;DHT22;52468;40.116;18.296;2024-01-27T15:12:11;15.20;69.20
51811;DHT22;52468;40.116;18.296;2024-01-27T15:14:39;15.10;69.60
51811;DHT22;52468;40.116;18.296;2024-01-27T15:17:07;15.10;69.90
51811;DHT22;52468;40.116;18.296;2024-01-27T15:19:35;15.00;70.40
51811;DHT22;52468;40.116;18.296;2024-01-27T15:22:06;15.00;70.70
51811;DHT22;52468;40.116;18.296;2024-01-27T15:24:34;14.90;71.10
51811;DHT22;52468;40.116;18.296;2024-01-27T15:27:04;14.70;71.60
51811;DHT22;52468;40.116;18.296;2024-01-27T15:29:33;14.80;71.70
51811;DHT22;52468;40.116;18.296;2024-01-27T15:32:01;14.70;72.00
51811;DHT22;52468;40.116;18.296;2024-01-27T15:34:29;14.70;72.10
51811;DHT22;52468;40.116;18.296;2024-01-27T15:37:00;14.60;72.70